Time;durP1;ratioP1;P1;durP2;ratioP2;P2;SDS_P1;SDS_P2;PMS_P1;PMS_P2;Temp;Humidity;BMP_temperature;BMP_pressure;BME280_temperature;BME280_humidity;BME280_pressure;Samples;Min_cycle;Max_cycle;Signal;HPM_P1;HPM_P2
2023/10/10 00:01:39;;;;;;;19.05;18.15;;;;;;;-141.02;71.98;43185.34;5092794;28;20651;-69
2023/10/10 00:04:07;;;;;;;18.75;17.85;;;;;;;-141.02;72.53;43173.81;5092925;28;20228;-67
2023/10/10 00:06:38;;;;;;;18.63;17.77;;;;;;;-141.02;72.75;43158.47;5092654;28;20190;-69
2023/10/10 00:09:09;;;;;;;19.05;18.15;;;;;;;-141.02;72.19;43146.94;5099871;27;20196;-64
2023/10/10 00:11:37;;;;;;;18.48;17.65;;;;;;;-141.02;72.10;43146.94;5135840;27;20218;-68
2023/10/10 00:14:06;;;;;;;18.85;17.95;;;;;;;-141.02;71.78;43143.09;5136079;27;20192;-66
2023/10/10 00:16:35;;;;;;;18.20;17.40;;;;;;;-141.02;71.01;43146.94;5135409;27;20279;-68
2023/10/10 00:19:11;;;;;;;19.02;18.13;;;;;;;-141.02;71.35;43120.06;5135330;27;20203;-67
2023/10/10 00:21:40;;;;;;;18.98;18.08;;;;;;;-141.02;71.52;43145.03;5135410;27;20191;-69
2023/10/10 00:24:11;;;;;;;19.10;18.20;;;;;;;-141.02;71.66;43141.19;5135240;27;20679;-68
2023/10/10 00:26:40;;;;;;;18.95;18.05;;;;;;;-141.02;72.54;43108.56;5135313;27;20196;-69
2023/10/10 00:29:08;;;;;;;18.75;17.85;;;;;;;-141.02;73.64;43143.09;5135185;27;20202;-69
2023/10/10 00:31:45;;;;;;;18.90;18.00;;;;;;;-141.02;73.44;43139.28;5135381;27;20196;-69
2023/10/10 00:34:13;;;;;;;19.27;18.38;;;;;;;-141.02;74.08;43129.66;5135102;27;20192;-67
2023/10/10 00:36:42;;;;;;;18.90;18.00;;;;;;;-141.02;74.22;43123.91;5134813;27;20279;-69
2023/10/10 00:39:23;;;;;;;18.90;18.00;;;;;;;-141.02;73.80;43114.31;5135378;27;20669;-68
2023/10/10 00:41:54;;;;;;;18.55;17.67;;;;;;;-141.02;73.41;43116.22;5135461;27;20189;-70
2023/10/10 00:44:25;;;;;;;18.80;17.90;;;;;;;-141.02;73.74;43081.66;5134907;27;20188;-68
2023/10/10 00:46:57;;;;;;;18.65;17.75;;;;;;;-141.02;74.08;43150.78;5134854;27;20213;-68
2023/10/10 00:49:27;;;;;;;18.90;18.00;;;;;;;-141.02;74.37;43066.31;5135177;27;20196;-69
2023/10/10 00:52:01;;;;;;;19.27;18.38;;;;;;;-141.02;74.48;43097.03;5135027;27;20213;-67
2023/10/10 00:54:31;;;;;;;18.83;17.92;;;;;;;-141.02;74.71;43085.50;5135089;27;20271;-68
2023/10/10 01:01:12;;;;;;;18.67;17.77;;;;;;;-141.02;74.66;43081.66;5134604;27;20203;-69
2023/10/10 01:04:14;;;;;;;18.58;17.67;;;;;;;-141.02;74.63;43089.34;5134574;27;20192;-69
2023/10/10 01:06:43;;;;;;;18.17;17.38;;;;;;;-141.02;74.68;43070.16;5134419;27;20189;-68
2023/10/10 01:09:21;;;;;;;19.08;18.17;;;;;;;-141.02;74.68;43074.00;5134448;27;20666;-69
2023/10/10 01:11:49;;;;;;;19.00;18.10;;;;;;;-141.02;74.80;43077.84;5134574;27;20216;-69
2023/10/10 01:14:24;;;;;;;19.00;18.10;;;;;;;-141.02;75.27;43062.47;5134235;27;20645;-68
2023/10/10 01:21:18;;;;;;;18.80;17.90;;;;;;;-141.02;74.59;43047.13;5134109;27;20249;-68
2023/10/10 01:24:06;;;;;;;18.83;17.92;;;;;;;-141.02;74.01;43027.91;5134031;27;20193;-68
2023/10/10 01:26:37;;;;;;;18.80;17.90;;;;;;;-141.02;74.37;43024.06;5134340;27;20203;-67
2023/10/10 01:29:18;;;;;;;18.50;17.60;;;;;;;-141.02;74.77;43054.78;5134339;27;20688;-69
2023/10/10 01:31:45;;;;;;;18.15;17.35;;;;;;;-141.02;75.21;43058.63;5134246;27;20184;-67
2023/10/10 01:34:30;;;;;;;18.65;17.75;;;;;;;-141.02;75.98;43074.00;5133877;27;20294;-69
2023/10/10 01:37:14;;;;;;;18.13;17.33;;;;;;;-141.02;76.74;43077.84;5133864;27;20232;-70
2023/10/10 01:43:10;;;;;;;18.70;17.80;;;;;;;-141.02;77.90;43050.97;5133797;27;20255;-67
2023/10/10 01:48:59;;;;;;;18.20;17.40;;;;;;;-141.02;78.57;43050.97;5133853;27;20176;-68
2023/10/10 01:51:33;;;;;;;18.00;17.20;;;;;;;-141.02;78.93;43047.13;5133613;27;20682;-69
2023/10/10 01:54:03;;;;;;;18.63;17.73;;;;;;;-141.02;79.34;43031.75;5133852;27;20229;-68
2023/10/10 01:56:30;;;;;;;18.67;17.77;;;;;;;-141.02;79.68;43027.91;5133534;27;20702;-68
2023/10/10 02:02:25;;;;;;;18.08;17.27;;;;;;;-141.02;78.71;42985.69;5133594;27;20236;-69
2023/10/10 02:04:56;;;;;;;18.77;17.88;;;;;;;-141.02;78.51;43008.72;5133392;27;20200;-69
2023/10/10 02:07:23;;;;;;;17.83;17.02;;;;;;;-141.02;78.33;42970.31;5133726;27;20743;-66
2023/10/10 02:10:00;;;;;;;18.00;17.20;;;;;;;-141.02;78.65;42981.84;5132755;27;20650;-69
2023/10/10 02:12:33;;;;;;;18.50;17.70;;;;;;;-141.02;79.35;43001.03;5133305;27;20212;-68
2023/10/10 02:15:01;;;;;;;18.05;17.25;;;;;;;-141.02;79.59;42970.31;5133833;27;20237;-69
2023/10/10 02:17:36;;;;;;;18.02;17.23;;;;;;;-141.02;80.19;42954.97;5133151;27;20196;-69
2023/10/10 02:20:32;;;;;;;18.30;17.50;;;;;;;-141.02;79.87;42953.03;5133120;27;20271;-67
2023/10/10 02:23:09;;;;;;;18.33;17.52;;;;;;;-141.02;79.54;42916.56;5133718;27;20192;-67
2023/10/10 02:25:40;;;;;;;17.92;17.13;;;;;;;-141.02;79.35;42908.88;5133453;27;20184;-69
2023/10/10 02:28:19;;;;;;;18.17;17.38;;;;;;;-141.02;79.45;42924.25;5133368;27;20185;-69
2023/10/10 02:30:50;;;;;;;17.95;17.15;;;;;;;-141.02;79.20;42889.69;5133128;27;20192;-68
2023/10/10 02:33:30;;;;;;;18.63;17.77;;;;;;;-141.02;78.95;42897.38;5132844;28;20220;-69
2023/10/10 02:36:36;;;;;;;18.05;17.25;;;;;;;-141.02;79.00;42876.25;5133587;27;20369;-67
2023/10/10 02:39:19;;;;;;;18.10;17.30;;;;;;;-141.02;78.76;42858.97;5092107;28;20227;-68
2023/10/10 02:41:50;;;;;;;18.08;17.27;;;;;;;-141.02;78.77;42897.38;5092094;28;20186;-69
2023/10/10 02:44:38;;;;;;;18.23;17.42;;;;;;;-141.02;79.01;42841.69;5092388;28;20623;-70
2023/10/10 02:47:05;;;;;;;18.10;17.30;;;;;;;-141.02;79.63;42866.66;5092051;28;20281;-68
2023/10/10 02:49:37;;;;;;;18.30;17.45;;;;;;;-141.02;80.45;42882.00;5092279;28;20605;-70
2023/10/10 02:52:06;;;;;;;17.88;17.08;;;;;;;-141.02;81.75;42889.69;5092271;28;20193;-68
2023/10/10 02:54:34;;;;;;;17.90;17.10;;;;;;;-141.02;82.28;42822.50;5091903;28;20629;-69
2023/10/10 02:59:43;;;;;;;18.05;17.25;;;;;;;-141.02;81.88;42812.91;5091655;28;20201;-69
2023/10/10 03:02:18;;;;;;;17.88;17.08;;;;;;;-141.02;81.77;42809.06;5091810;28;20545;-69
2023/10/10 03:05:06;;;;;;;18.45;17.55;;;;;;;-141.02;81.18;42816.75;5091889;28;20667;-68
2023/10/10 03:08:34;;;;;;;17.98;17.17;;;;;;;-141.02;81.38;42778.34;5091906;28;20259;-67
2023/10/10 03:11:02;;;;;;;18.05;17.25;;;;;;;-141.02;81.42;42782.19;5091895;28;20663;-69
2023/10/10 03:13:36;;;;;;;17.83;17.02;;;;;;;-141.02;81.35;42772.59;5091776;28;20320;-60
2023/10/10 03:19:13;;;;;;;17.45;16.75;;;;;;;-141.02;82.02;42774.50;5080911;28;20186;-68
2023/10/10 03:21:58;;;;;;;18.25;17.45;;;;;;;-141.02;82.28;42759.16;5092315;28;20579;-69
2023/10/10 03:24:51;;;;;;;17.65;16.88;;;;;;;-141.02;81.88;42770.66;5095854;28;20190;-69
2023/10/10 03:30:21;;;;;;;17.75;16.95;;;;;;;-141.02;81.92;42747.63;5053678;28;20264;-68
2023/10/10 03:33:08;;;;;;;17.65;16.85;;;;;;;-141.02;81.51;42743.78;5059050;28;20223;-67
2023/10/10 05:23:35;;;;;;;16.05;15.35;;;;;;;-141.02;90.09;42855.13;5134274;27;20216;-65
2023/10/10 05:26:05;;;;;;;15.82;15.13;;;;;;;-141.02;90.20;42862.81;5134415;27;20181;-69
2023/10/10 05:28:33;;;;;;;16.33;15.63;;;;;;;-141.02;89.85;42882.00;5134314;27;20187;-67
2023/10/10 05:31:02;;;;;;;15.80;15.10;;;;;;;-141.02;89.79;42882.00;5134257;27;20192;-66
2023/10/10 05:33:36;;;;;;;15.77;15.07;;;;;;;-141.02;89.91;42885.84;5133868;27;20705;-66
2023/10/10 05:36:06;;;;;;;15.90;15.20;;;;;;;-141.02;89.62;42893.53;5134315;27;20237;-68
2023/10/10 05:38:39;;;;;;;16.10;15.40;;;;;;;-141.02;88.19;42893.53;5133733;27;20909;-68
2023/10/10 05:41:07;;;;;;;16.27;15.48;;;;;;;-141.02;87.56;42885.84;5134185;27;20271;-67
2023/10/10 05:43:35;;;;;;;16.75;15.95;;;;;;;-141.02;86.69;42912.72;5133925;27;20197;-68
2023/10/10 05:46:03;;;;;;;16.92;16.13;;;;;;;-141.02;86.96;42882.00;5133094;27;20252;-68
2023/10/10 05:48:32;;;;;;;16.95;16.15;;;;;;;-141.02;87.26;42853.22;5133652;27;20718;-68
2023/10/10 05:51:00;;;;;;;16.40;15.70;;;;;;;-141.02;86.69;42882.00;5133708;27;20668;-70
2023/10/10 05:53:27;;;;;;;16.48;15.68;;;;;;;-141.02;86.80;42891.59;5133532;27;20652;-68
2023/10/10 05:55:58;;;;;;;16.67;15.88;;;;;;;-141.02;85.83;42901.22;5133806;27;20196;-68
2023/10/10 05:58:26;;;;;;;16.90;16.10;;;;;;;-141.02;85.64;42912.72;5133488;27;20197;-66
2023/10/10 06:00:54;;;;;;;17.25;16.45;;;;;;;-141.02;85.40;42914.66;5133730;27;20189;-68
2023/10/10 06:03:22;;;;;;;17.15;16.35;;;;;;;-141.02;85.49;42928.09;5133487;27;20202;-67
2023/10/10 06:05:50;;;;;;;17.08;16.27;;;;;;;-141.02;84.97;42958.81;5133664;27;20196;-64
2023/10/10 06:08:17;;;;;;;17.00;16.30;;;;;;;-141.02;84.64;42978.00;5133427;27;20198;-68
2023/10/10 06:10:44;;;;;;;17.40;16.60;;;;;;;-141.02;83.19;42931.94;5133566;27;20634;-69
2023/10/10 06:13:12;;;;;;;17.55;16.75;;;;;;;-141.02;83.38;42912.72;5133468;27;20220;-68
2023/10/10 06:15:39;;;;;;;17.70;16.90;;;;;;;-141.02;82.80;42947.28;5133242;27;20202;-67
2023/10/10 06:18:11;;;;;;;17.58;16.77;;;;;;;-141.02;82.83;42897.38;5133482;27;20249;-69
2023/10/10 06:20:41;;;;;;;17.80;16.90;;;;;;;-141.02;83.38;42903.13;5133586;27;20573;-67
2023/10/10 06:23:14;;;;;;;16.92;16.13;;;;;;;-141.02;84.44;42870.50;5133396;27;20232;-67
2023/10/10 06:25:42;;;;;;;16.92;16.13;;;;;;;-141.02;85.13;42885.84;5133129;27;20650;-68
2023/10/10 06:28:22;;;;;;;16.25;15.55;;;;;;;-141.02;84.72;42905.06;5133055;27;20200;-66
2023/10/10 06:30:53;;;;;;;16.73;15.95;;;;;;;-141.02;84.61;42880.09;5133417;27;20233;-68
2023/10/10 06:33:27;;;;;;;15.40;14.70;;;;;;;-141.02;84.33;42937.69;5133216;27;20220;-69
2023/10/10 06:36:32;;;;;;;15.40;14.70;;;;;;;-141.02;84.35;42914.66;5133437;28;20227;-70
2023/10/10 06:41:42;;;;;;;14.82;14.23;;;;;;;-141.02;83.76;42962.66;5133192;28;20183;-68
2023/10/10 06:44:13;;;;;;;15.02;14.43;;;;;;;-141.02;83.22;42908.88;5132968;28;20679;-69
2023/10/10 06:46:40;;;;;;;15.07;14.48;;;;;;;-141.02;82.86;42943.44;5133281;28;20184;-68
2023/10/10 06:49:07;;;;;;;15.13;14.52;;;;;;;-141.02;83.00;42954.97;5133192;28;20199;-68
2023/10/10 06:51:39;;;;;;;15.15;14.55;;;;;;;-141.02;82.17;42931.94;5132760;28;20196;-68
2023/10/10 06:54:09;;;;;;;14.90;14.30;;;;;;;-141.02;82.11;42916.56;5132776;28;20208;-68
2023/10/10 06:56:53;;;;;;;14.85;14.25;;;;;;;-141.02;81.94;42928.09;5135131;27;20227;-67
2023/10/10 06:59:26;;;;;;;15.02;14.43;;;;;;;-141.02;82.21;42916.56;5137055;27;20203;-68
2023/10/10 07:01:53;;;;;;;16.65;15.40;;;;;;;-141.02;82.63;42920.41;5136982;27;20180;-69
2023/10/10 07:04:21;;;;;;;15.68;14.98;;;;;;;-141.02;82.19;42876.25;5136881;27;20677;-69
2023/10/10 07:06:50;;;;;;;15.07;14.48;;;;;;;-141.02;83.31;42876.25;5137101;27;20192;-69
2023/10/10 07:09:27;;;;;;;15.15;14.55;;;;;;;-141.02;83.33;42882.00;5136841;27;20199;-69
2023/10/10 07:11:55;;;;;;;15.18;14.57;;;;;;;-141.02;83.60;42920.41;5137084;27;20335;-65
2023/10/10 07:14:25;;;;;;;20.27;16.45;;;;;;;-141.02;84.11;42956.88;5136907;27;20234;-66
2023/10/10 07:16:54;;;;;;;15.18;14.57;;;;;;;-141.02;82.78;42931.94;5136958;27;20189;-67
2023/10/10 07:19:26;;;;;;;15.20;14.60;;;;;;;-141.02;81.53;42901.22;5136608;27;20200;-67
2023/10/10 07:21:53;;;;;;;15.50;14.90;;;;;;;-141.02;79.64;42928.09;5136539;27;20181;-67
2023/10/10 07:24:28;;;;;;;15.38;14.77;;;;;;;-141.02;78.46;42941.53;5136533;27;20608;-64
2023/10/10 07:27:11;;;;;;;15.70;15.10;;;;;;;-141.02;77.53;42943.44;5136857;27;20605;-68
2023/10/10 07:32:29;;;;;;;15.32;14.73;;;;;;;-141.02;77.71;42905.06;5125268;27;20275;-58
2023/10/10 07:34:58;;;;;;;15.38;14.77;;;;;;;-141.02;77.86;42897.38;5136504;27;20284;-67
2023/10/10 07:37:28;;;;;;;15.45;14.85;;;;;;;-141.02;77.55;42937.69;5136020;27;20235;-69
2023/10/10 07:39:57;;;;;;;15.07;14.48;;;;;;;-141.02;77.90;42962.66;5136196;27;20193;-66
2023/10/10 07:42:29;;;;;;;15.25;14.65;;;;;;;-141.02;77.24;42935.75;5136515;27;20189;-68
2023/10/10 07:44:56;;;;;;;15.40;14.80;;;;;;;-141.02;76.47;42935.75;5136485;27;20189;-62
2023/10/10 07:47:27;;;;;;;15.05;14.45;;;;;;;-141.02;77.03;42928.09;5136034;27;20192;-68
2023/10/10 07:49:54;;;;;;;15.25;14.65;;;;;;;-141.02;78.97;42947.28;5136413;27;20184;-68
2023/10/10 07:52:22;;;;;;;16.85;16.15;;;;;;;-141.02;78.17;42924.25;5136300;27;20192;-68
2023/10/10 07:54:53;;;;;;;14.60;14.10;;;;;;;-141.02;78.41;42899.28;5135817;27;20224;-66
2023/10/10 07:57:28;;;;;;;14.70;14.10;;;;;;;-141.02;78.48;42954.97;5136321;27;20222;-68
2023/10/10 07:59:58;;;;;;;14.98;14.38;;;;;;;-141.02;78.23;42956.88;5136130;27;20203;-67
2023/10/10 08:02:26;;;;;;;14.40;13.90;;;;;;;-141.02;78.95;42989.53;5135767;27;20253;-68
2023/10/10 08:04:53;;;;;;;14.82;14.23;;;;;;;-141.02;78.75;43008.72;5135716;27;20671;-68
2023/10/10 08:07:22;;;;;;;14.77;14.18;;;;;;;-141.02;77.70;43002.97;5135202;27;20739;-68
2023/10/10 08:09:49;;;;;;;15.25;14.65;;;;;;;-141.02;74.62;42989.53;5135913;27;20196;-69
2023/10/10 08:12:17;;;;;;;15.35;14.75;;;;;;;-141.02;73.55;42905.06;5135580;27;20288;-67
2023/10/10 08:14:45;;;;;;;15.48;14.88;;;;;;;-141.02;73.21;42880.09;5135795;27;20232;-68
2023/10/10 08:17:19;;;;;;;15.30;14.70;;;;;;;-141.02;73.80;42997.19;5135817;27;20609;-67
2023/10/10 08:19:51;;;;;;;14.98;14.38;;;;;;;-141.02;74.22;43001.03;5135838;27;20188;-65
2023/10/10 08:22:19;;;;;;;15.45;14.85;;;;;;;-141.02;74.17;43001.03;5135965;27;20257;-64
2023/10/10 08:24:46;;;;;;;14.90;14.30;;;;;;;-141.02;74.26;42962.66;5135580;27;20654;-66
2023/10/10 08:27:14;;;;;;;14.60;14.10;;;;;;;-141.02;73.99;42947.28;5135283;27;20224;-69
2023/10/10 08:29:41;;;;;;;14.95;14.35;;;;;;;-141.02;75.13;43020.25;5135286;27;20196;-66
2023/10/10 08:32:09;;;;;;;14.48;13.98;;;;;;;-141.02;76.69;43010.63;5135553;27;20615;-68
2023/10/10 08:34:38;;;;;;;15.30;14.70;;;;;;;-141.02;76.11;43052.88;5135029;27;20280;-68
2023/10/10 08:37:08;;;;;;;14.98;14.48;;;;;;;-141.02;74.54;43043.28;5134814;27;20228;-65
2023/10/10 08:39:36;;;;;;;14.35;13.85;;;;;;;-141.02;73.67;43045.19;5135407;27;20188;-69
2023/10/10 08:42:10;;;;;;;15.10;14.60;;;;;;;-141.02;72.71;43050.97;5135006;27;20646;-68
2023/10/10 08:44:39;;;;;;;14.10;13.60;;;;;;;-141.02;71.35;43037.50;5134969;27;20676;-67
2023/10/10 08:47:15;;;;;;;14.45;13.95;;;;;;;-141.02;71.88;43020.25;5134927;27;20249;-65
2023/10/10 08:49:47;;;;;;;14.80;14.30;;;;;;;-141.02;69.78;43008.72;5135231;27;20187;-68
2023/10/10 08:52:16;;;;;;;14.75;14.25;;;;;;;-141.02;68.69;42999.13;5134856;27;20216;-68
2023/10/10 08:54:45;;;;;;;14.90;14.40;;;;;;;-141.02;69.86;43012.56;5134670;27;20226;-68
2023/10/10 08:57:12;;;;;;;14.63;14.13;;;;;;;-141.02;70.27;42970.31;5134731;27;20206;-65
2023/10/10 08:59:42;;;;;;;14.45;13.95;;;;;;;-141.02;70.77;42991.44;5134601;27;20601;-70
2023/10/10 09:02:16;;;;;;;15.07;14.48;;;;;;;-141.02;70.78;43020.25;5134612;27;20614;-69
2023/10/10 09:04:43;;;;;;;14.20;13.70;;;;;;;-141.02;70.37;43050.97;5134487;27;20188;-68
2023/10/10 09:07:19;;;;;;;13.90;13.40;;;;;;;-141.02;72.41;43047.13;5134810;27;20193;-69
2023/10/10 09:09:54;;;;;;;14.50;14.00;;;;;;;-141.02;73.53;43026.00;5134476;27;20241;-67
2023/10/10 09:12:23;;;;;;;14.48;13.98;;;;;;;-141.02;73.55;43012.56;5134858;27;20211;-69
2023/10/10 09:14:50;;;;;;;14.30;13.80;;;;;;;-141.02;73.82;42999.13;5134185;27;20228;-66
2023/10/10 09:17:29;;;;;;;14.20;13.70;;;;;;;-141.02;73.67;43024.06;5134329;27;20650;-68
2023/10/10 09:19:58;;;;;;;14.10;13.60;;;;;;;-141.02;73.29;43072.06;5134281;27;20672;-68
2023/10/10 09:22:42;;;;;;;14.20;13.70;;;;;;;-141.02;73.12;43066.31;5134261;27;20280;-67
2023/10/10 09:25:22;;;;;;;14.32;13.82;;;;;;;-141.02;72.45;43050.97;5134103;27;20228;-69
2023/10/10 09:27:59;;;;;;;14.57;14.07;;;;;;;-141.02;71.43;43035.59;5134116;27;20622;-67
2023/10/10 09:30:32;;;;;;;14.50;14.00;;;;;;;-141.02;71.28;42970.31;5134368;27;20196;-66
2023/10/10 09:33:13;;;;;;;14.35;13.85;;;;;;;-141.02;71.03;43075.91;5134326;27;20185;-67
2023/10/10 09:35:41;;;;;;;14.35;13.85;;;;;;;-141.02;70.16;43016.41;5133946;27;20704;-65
2023/10/10 09:38:16;;;;;;;14.60;14.10;;;;;;;-141.02;67.81;42943.44;5133765;27;20228;-69
2023/10/10 09:40:47;;;;;;;14.80;14.30;;;;;;;-141.02;66.77;42922.31;5133843;27;20188;-66
2023/10/10 09:43:25;;;;;;;14.82;14.32;;;;;;;-141.02;68.42;43074.00;5133850;27;20672;-69
2023/10/10 09:45:58;;;;;;;15.23;14.63;;;;;;;-141.02;68.77;43047.13;5133791;27;20545;-67
2023/10/10 09:48:59;;;;;;;15.00;14.50;;;;;;;-141.02;68.35;43039.44;5133741;27;20191;-63
2023/10/10 09:52:47;;;;;;;14.32;13.82;;;;;;;-141.02;67.72;43074.00;5133610;27;20609;-69
2023/10/10 09:54:25;;;;;;;14.68;14.18;;;;;;;-141.02;64.96;43074.00;5133445;27;20220;-66
2023/10/10 09:56:53;;;;;;;15.00;14.50;;;;;;;-141.02;65.04;42993.34;5133885;27;20608;-67
2023/10/10 09:59:28;;;;;;;15.15;14.55;;;;;;;-141.02;67.06;43087.44;5133550;27;20727;-67
2023/10/10 10:02:04;;;;;;;27.67;26.48;;;;;;;-141.02;65.18;42964.56;5133551;27;20602;-66
2023/10/10 10:04:41;;;;;;;27.55;26.35;;;;;;;-141.02;63.98;43008.72;5133409;27;20219;-69
2023/10/10 10:07:28;;;;;;;25.60;24.55;;;;;;;-141.02;64.91;43004.88;5133402;27;20188;-68
2023/10/10 10:10:16;;;;;;;25.13;24.13;;;;;;;-141.02;65.49;42978.00;5133401;27;20654;-68
2023/10/10 10:13:00;;;;;;;24.30;23.30;;;;;;;-141.02;65.77;43012.56;5133432;27;20184;-64
2023/10/10 10:15:48;;;;;;;25.58;24.58;;;;;;;-141.02;66.51;42997.19;5133225;27;20303;-68
2023/10/10 10:18:26;;;;;;;26.80;25.70;;;;;;;-141.02;66.85;42995.28;5133221;27;20224;-68
2023/10/10 10:21:18;;;;;;;27.25;26.15;;;;;;;-141.02;68.61;43029.84;5133196;27;20574;-69
2023/10/10 10:23:55;;;;;;;25.35;24.35;;;;;;;-141.02;68.97;43058.63;5133260;27;20195;-67
2023/10/10 10:26:31;;;;;;;28.15;26.95;;;;;;;-141.02;68.80;43041.34;5133140;27;20188;-68
2023/10/10 10:29:00;;;;;;;24.52;23.52;;;;;;;-141.02;68.16;43050.97;5133412;27;20210;-67
2023/10/10 10:31:36;;;;;;;26.08;24.98;;;;;;;-141.02;68.05;43043.28;5132477;27;20190;-68
2023/10/10 10:34:07;;;;;;;25.35;24.35;;;;;;;-141.02;67.69;43029.84;5132902;27;20267;-67
2023/10/10 10:36:43;;;;;;;27.15;26.05;;;;;;;-141.02;67.87;42985.69;5133069;27;20192;-68
2023/10/10 10:39:19;;;;;;;24.67;23.67;;;;;;;-141.02;67.44;43001.03;5133251;28;20249;-69
2023/10/10 10:41:53;;;;;;;26.90;25.80;;;;;;;-141.02;67.80;42974.16;5132862;28;20624;-67
2023/10/10 10:44:44;;;;;;;24.00;23.05;;;;;;;-141.02;67.77;42979.91;5132977;28;20645;-67
2023/10/10 10:47:12;;;;;;;26.00;24.90;;;;;;;-141.02;69.12;42962.66;5132961;28;20188;-67
2023/10/10 10:49:39;;;;;;;25.90;24.90;;;;;;;-141.02;70.71;43001.03;5132919;27;20197;-68
2023/10/10 10:52:19;;;;;;;28.20;27.02;;;;;;;-141.02;71.41;42989.53;5132856;27;20192;-67
2023/10/10 10:55:18;;;;;;;23.90;22.90;;;;;;;-141.02;70.83;43001.03;5132804;28;20212;-69
2023/10/10 10:57:40;;;;;;;26.83;25.73;;;;;;;-141.02;70.57;43010.63;5132653;28;20188;-67
2023/10/10 11:00:20;;;;;;;24.33;23.33;;;;;;;-141.02;70.92;43022.16;5132866;28;20232;-66
2023/10/10 11:02:50;;;;;;;26.63;25.52;;;;;;;-141.02;71.04;43020.25;5133103;27;20184;-66
2023/10/10 11:05:26;;;;;;;24.63;23.63;;;;;;;-141.02;70.59;42997.19;5133040;28;20192;-68
2023/10/10 11:08:06;;;;;;;25.50;24.45;;;;;;;-141.02;70.24;42985.69;5133096;27;20184;-67
2023/10/10 11:10:36;;;;;;;26.52;25.42;;;;;;;-141.02;69.87;42993.34;5133575;28;20185;-68
2023/10/10 11:13:07;;;;;;;26.23;25.13;;;;;;;-141.02;69.90;43022.16;5132728;28;20185;-69
2023/10/10 11:15:38;;;;;;;26.00;24.90;;;;;;;-141.02;69.32;43020.25;5132966;27;20239;-67
2023/10/10 11:18:08;;;;;;;25.92;24.83;;;;;;;-141.02;68.71;42989.53;5132907;28;20545;-67
2023/10/10 11:20:55;;;;;;;25.80;24.80;;;;;;;-141.02;69.01;42947.28;5133003;28;20193;-68
2023/10/10 11:23:33;;;;;;;25.67;24.67;;;;;;;-141.02;69.52;42970.31;5132625;28;20618;-68
2023/10/10 11:26:01;;;;;;;13.95;13.45;;;;;;;-141.02;69.81;42983.75;5132693;28;20666;-68
2023/10/10 11:28:37;;;;;;;14.35;13.85;;;;;;;-141.02;70.28;42997.19;5132572;28;20654;-68
2023/10/10 11:31:07;;;;;;;14.90;14.40;;;;;;;-141.02;70.39;42989.53;5132854;28;20196;-68
2023/10/10 11:33:55;;;;;;;23.70;22.75;;;;;;;-141.02;69.75;42997.19;5132519;27;20192;-68
2023/10/10 11:36:24;;;;;;;23.60;22.70;;;;;;;-141.02;69.71;42935.75;5132403;28;20647;-68
2023/10/10 11:38:55;;;;;;;23.58;22.67;;;;;;;-141.02;69.43;42939.59;5132282;28;20232;-67
2023/10/10 11:41:29;;;;;;;26.85;25.75;;;;;;;-141.02;70.04;42945.38;5132500;27;20201;-68
2023/10/10 11:44:01;;;;;;;25.63;24.63;;;;;;;-141.02;69.72;42924.25;5135491;27;20195;-68
2023/10/10 11:46:29;;;;;;;24.85;23.85;;;;;;;-141.02;69.55;42926.16;5136113;27;20197;-58
2023/10/10 11:48:56;;;;;;;15.30;14.80;;;;;;;-141.02;69.87;42920.41;5136071;27;20203;-68
2023/10/10 11:51:34;;;;;;;14.70;14.20;;;;;;;-141.02;69.92;42949.19;5135953;27;20658;-66
2023/10/10 11:54:02;;;;;;;15.55;14.95;;;;;;;-141.02;69.91;42933.84;5136039;27;20220;-68
2023/10/10 11:56:34;;;;;;;24.13;23.13;;;;;;;-141.02;70.07;42924.25;5135794;27;20270;-68
2023/10/10 11:59:07;;;;;;;27.35;26.20;;;;;;;-141.02;70.03;42947.28;5136211;27;20181;-67
2023/10/10 12:04:30;;;;;;;24.52;23.52;;;;;;;-141.02;70.09;43004.88;5133497;27;20311;-68
2023/10/10 12:07:00;;;;;;;14.75;14.25;;;;;;;-141.02;70.51;43045.19;5136118;27;20184;-68
2023/10/10 12:09:29;;;;;;;14.68;14.18;;;;;;;-141.02;69.50;43060.56;5135978;27;20196;-69
2023/10/10 12:12:01;;;;;;;14.77;14.27;;;;;;;-141.02;68.97;43027.91;5135482;27;20203;-65
2023/10/10 12:14:30;;;;;;;28.05;26.70;;;;;;;-141.02;69.02;43001.03;5135837;27;20267;-68
2023/10/10 12:16:58;;;;;;;27.98;26.77;;;;;;;-141.02;68.78;42991.44;5135510;27;20202;-68
2023/10/10 12:19:28;;;;;;;25.13;24.13;;;;;;;-141.02;68.32;42985.69;5135760;27;20188;-68
2023/10/10 12:22:03;;;;;;;27.00;25.90;;;;;;;-141.02;68.56;42958.81;5136068;27;20197;-68
2023/10/10 12:24:32;;;;;;;24.90;23.90;;;;;;;-141.02;68.58;42978.00;5135674;27;20267;-68
2023/10/10 12:26:59;;;;;;;14.40;13.90;;;;;;;-141.02;69.00;42962.66;5135525;27;20250;-67
2023/10/10 12:29:28;;;;;;;14.70;14.20;;;;;;;-141.02;69.19;42981.84;5135578;27;20201;-68
2023/10/10 12:31:55;;;;;;;14.80;14.30;;;;;;;-141.02;69.52;42966.47;5135234;27;20193;-68
2023/10/10 12:34:24;;;;;;;14.15;13.65;;;;;;;-141.02;69.91;42958.81;5135481;27;20192;-68
2023/10/10 12:36:59;;;;;;;26.70;25.60;;;;;;;-141.02;69.88;43027.91;5135167;27;20273;-66
2023/10/10 12:39:29;;;;;;;24.05;23.05;;;;;;;-141.02;69.65;43024.06;5135061;27;20664;-68
2023/10/10 12:41:59;;;;;;;26.63;25.52;;;;;;;-141.02;69.49;43037.50;5135378;27;20194;-68
2023/10/10 12:44:26;;;;;;;28.00;26.80;;;;;;;-141.02;69.41;43050.97;5134991;27;20173;-67
2023/10/10 12:46:58;;;;;;;21.15;20.33;;;;;;;-141.02;69.07;43039.44;5135298;27;20544;-68
2023/10/10 12:49:28;;;;;;;15.05;14.55;;;;;;;-141.02;69.22;43058.63;5134902;27;20651;-66
2023/10/10 12:52:00;;;;;;;15.30;14.70;;;;;;;-141.02;68.95;43049.03;5135204;27;20188;-67
2023/10/10 12:54:34;;;;;;;15.50;14.90;;;;;;;-141.02;68.69;43104.72;5134363;27;20197;-66
2023/10/10 12:57:06;;;;;;;28.08;26.88;;;;;;;-141.02;68.36;43074.00;5134772;27;20249;-68
2023/10/10 12:59:33;;;;;;;27.60;26.40;;;;;;;-141.02;67.59;43097.03;5134744;27;20195;-69
2023/10/10 13:02:03;;;;;;;30.13;28.80;;;;;;;-141.02;67.24;43118.16;5134672;27;20221;-69
2023/10/10 13:04:32;;;;;;;28.42;27.13;;;;;;;-141.02;67.18;43100.88;5134623;27;20197;-68
2023/10/10 13:07:03;;;;;;;15.70;15.10;;;;;;;-141.02;67.05;43058.63;5134878;27;20200;-68
2023/10/10 13:09:31;;;;;;;15.68;15.07;;;;;;;-141.02;67.26;43097.03;5134558;27;20193;-68
2023/10/10 13:11:58;;;;;;;15.90;15.30;;;;;;;-141.02;67.81;42943.44;5134683;27;20204;-67
2023/10/10 13:14:32;;;;;;;21.48;20.58;;;;;;;-141.02;68.73;42943.44;5134474;27;20241;-67
2023/10/10 13:19:41;;;;;;;24.05;23.05;;;;;;;-141.02;69.41;42981.84;5134599;27;20669;-68
2023/10/10 13:22:08;;;;;;;24.70;23.70;;;;;;;-141.02;69.65;42978.00;5134227;27;20662;-67
2023/10/10 13:24:35;;;;;;;26.88;25.77;;;;;;;-141.02;69.84;42997.19;5134527;27;20199;-68
2023/10/10 13:27:06;;;;;;;15.90;15.30;;;;;;;-141.02;70.13;42985.69;5134071;27;20231;-68
2023/10/10 13:29:36;;;;;;;15.30;14.80;;;;;;;-141.02;70.44;42972.25;5134166;27;20722;-64
2023/10/10 13:32:05;;;;;;;15.38;14.77;;;;;;;-141.02;70.33;42981.84;5134343;27;20208;-68
2023/10/10 13:34:32;;;;;;;29.08;27.77;;;;;;;-141.02;70.54;42999.13;5133939;27;20235;-69
2023/10/10 13:36:59;;;;;;;26.80;25.70;;;;;;;-141.02;70.37;42979.91;5133894;27;20307;-67
2023/10/10 13:39:43;;;;;;;29.33;28.02;;;;;;;-141.02;70.52;43012.56;5133873;27;20635;-68
2023/10/10 13:42:14;;;;;;;26.40;25.30;;;;;;;-141.02;70.84;43002.97;5134120;27;20215;-69
2023/10/10 13:44:42;;;;;;;15.20;14.70;;;;;;;-141.02;71.35;43026.00;5133844;27;20191;-68
2023/10/10 13:47:10;;;;;;;15.32;14.82;;;;;;;-141.02;71.06;43020.25;5133714;27;20678;-68
2023/10/10 13:49:44;;;;;;;14.93;14.43;;;;;;;-141.02;71.06;43033.69;5133707;27;20288;-68
2023/10/10 13:52:12;;;;;;;15.20;14.70;;;;;;;-141.02;70.66;43039.44;5133641;27;20195;-68
2023/10/10 13:54:40;;;;;;;27.52;26.33;;;;;;;-141.02;70.59;43020.25;5133647;27;20235;-68